createdAt,value
2023-03-10T00:01:13.937Z,11.55
2023-03-10T00:03:15.790Z,11.43
2023-03-10T00:05:19.780Z,11.50
2023-03-10T00:07:21.864Z,12.13
2023-03-10T00:11:25.987Z,10.35
2023-03-10T00:13:27.951Z,14.18
2023-03-10T00:15:31.840Z,12.18
2023-03-10T00:17:33.837Z,14.10
2023-03-10T00:19:35.804Z,13.05
2023-03-10T00:21:37.725Z,13.52
2023-03-10T00:23:39.569Z,12.32
2023-03-10T00:25:41.460Z,12.63
2023-03-10T00:27:43.668Z,9.48
2023-03-10T00:29:45.559Z,8.77
2023-03-10T00:31:47.586Z,10.48
2023-03-10T00:33:50.057Z,15.73
2023-03-10T00:36:07.019Z,13.38
2023-03-10T00:38:08.911Z,9.68
2023-03-10T00:40:14.304Z,17.08
2023-03-10T00:42:16.138Z,13.75
2023-03-10T00:44:18.014Z,16.27
2023-03-10T00:46:20.481Z,11.88
2023-03-10T00:48:22.521Z,13.95
2023-03-10T00:50:24.395Z,12.23
2023-03-10T00:52:26.273Z,11.80
2023-03-10T00:54:28.120Z,9.75
2023-03-10T00:56:30.870Z,15.98
2023-03-10T00:58:33.845Z,9.68
2023-03-10T01:00:35.732Z,14.02
2023-03-10T01:02:37.633Z,13.52
2023-03-10T01:04:39.507Z,13.18
2023-03-10T01:06:42.345Z,13.02
2023-03-10T01:08:44.254Z,10.57
2023-03-10T01:10:46.971Z,11.52
2023-03-10T01:12:48.815Z,14.07
2023-03-10T01:14:50.700Z,14.85
2023-03-10T01:16:52.592Z,11.45
2023-03-10T01:18:54.527Z,12.02
2023-03-10T01:20:56.436Z,10.25
2023-03-10T01:22:58.505Z,11.85
2023-03-10T01:27:02.158Z,11.17
2023-03-10T01:29:04.032Z,13.57
2023-03-10T01:31:07.901Z,9.80
2023-03-10T01:33:11.000Z,12.60
2023-03-10T01:35:12.900Z,12.68
2023-03-10T01:37:14.743Z,12.45
2023-03-10T01:39:16.823Z,12.85
2023-03-10T01:43:20.728Z,13.88
2023-03-10T01:45:22.563Z,11.45
2023-03-10T01:47:24.398Z,11.07
2023-03-10T01:49:42.562Z,11.77
2023-03-10T01:51:48.814Z,11.55
2023-03-10T01:53:51.191Z,12.75
2023-03-10T01:55:59.933Z,11.98
2023-03-10T01:58:04.544Z,11.85
2023-03-10T02:00:14.751Z,11.68
2023-03-10T02:02:18.037Z,14.32
2023-03-10T02:04:43.826Z,11.10
2023-03-10T02:06:48.322Z,15.57
2023-03-10T02:08:53.887Z,13.15
2023-03-10T02:10:56.763Z,15.68
2023-03-10T02:12:58.607Z,18.90
2023-03-10T02:15:00.602Z,20.92
2023-03-10T02:19:15.681Z,25.05
2023-03-10T02:21:54.104Z,31.45
2023-03-10T02:24:07.528Z,29.45
2023-03-10T02:26:22.841Z,36.13
2023-03-10T02:28:25.055Z,35.08
2023-03-10T02:30:36.761Z,41.30
2023-03-10T02:33:07.706Z,38.28
2023-03-10T02:35:09.896Z,40.45
2023-03-10T02:37:23.223Z,42.10
2023-03-10T02:39:25.300Z,46.70
2023-03-10T02:43:35.118Z,44.25
2023-03-10T02:45:39.440Z,33.53
2023-03-10T02:47:42.359Z,40.45
2023-03-10T02:49:44.353Z,19.20
2023-03-10T02:51:47.345Z,17.38
2023-03-10T02:53:49.563Z,17.95
2023-03-10T02:55:52.156Z,14.80
2023-03-10T02:57:54.021Z,17.65
2023-03-10T02:59:55.921Z,15.60
2023-03-10T03:01:57.814Z,27.58
2023-03-10T03:04:00.514Z,29.88
2023-03-10T03:06:02.479Z,61.05
2023-03-10T03:08:06.113Z,70.68
2023-03-10T03:10:08.420Z,65.35
2023-03-10T03:12:10.345Z,60.45
2023-03-10T03:14:12.192Z,47.30
2023-03-10T03:16:14.353Z,46.58
2023-03-10T03:18:16.250Z,26.35
2023-03-10T03:20:18.356Z,28.83
2023-03-10T03:24:22.051Z,25.00
2023-03-10T03:26:26.969Z,24.23
2023-03-10T03:28:28.858Z,21.88
2023-03-10T03:30:30.809Z,21.67
2023-03-10T03:32:33.083Z,25.98
2023-03-10T03:34:35.046Z,26.95
2023-03-10T03:36:37.566Z,29.30
2023-03-10T03:38:39.577Z,25.60
2023-03-10T03:40:41.588Z,26.88
2023-03-10T03:42:49.272Z,18.77
2023-03-10T03:44:51.190Z,18.77
2023-03-10T03:46:53.106Z,19.23
2023-03-10T03:48:54.961Z,17.80
2023-03-10T03:50:56.879Z,13.02
2023-03-10T03:52:58.735Z,14.07
2023-03-10T03:55:00.721Z,14.07
2023-03-10T03:57:02.634Z,12.77
2023-03-10T03:59:04.524Z,13.40
2023-03-10T04:01:06.576Z,11.88
2023-03-10T04:05:11.612Z,15.25
2023-03-10T04:09:15.238Z,12.03
2023-03-10T04:11:17.221Z,10.65
2023-03-10T04:13:19.187Z,10.63
2023-03-10T04:15:21.273Z,11.13
2023-03-10T04:19:24.931Z,11.10
2023-03-10T04:21:26.794Z,9.88
2023-03-10T04:23:28.677Z,11.68
2023-03-10T04:25:30.983Z,10.88
2023-03-10T04:27:33.317Z,9.35
2023-03-10T04:29:36.514Z,10.45
2023-03-10T04:31:38.752Z,9.38
2023-03-10T04:33:40.705Z,10.45
2023-03-10T04:35:44.112Z,11.13
2023-03-10T04:37:45.995Z,9.55
2023-03-10T04:39:47.903Z,10.70
2023-03-10T04:41:49.786Z,9.27
2023-03-10T04:43:51.800Z,9.70
2023-03-10T04:45:54.981Z,13.23
2023-03-10T04:47:57.055Z,8.32
2023-03-10T04:52:00.741Z,10.13
2023-03-10T04:54:02.679Z,9.95
2023-03-10T04:56:07.286Z,9.93
2023-03-10T04:58:09.189Z,9.90
2023-03-10T05:00:12.802Z,8.93
2023-03-10T05:02:14.890Z,8.73
2023-03-10T05:06:21.426Z,12.65
2023-03-10T05:08:23.301Z,9.93
2023-03-10T05:10:25.189Z,9.98
2023-03-10T05:12:27.158Z,8.77
2023-03-10T05:14:29.064Z,10.40
2023-03-10T05:16:31.071Z,8.40
2023-03-10T05:18:32.908Z,9.60
2023-03-10T05:20:35.363Z,13.30
2023-03-10T05:22:38.476Z,10.48
2023-03-10T05:24:40.707Z,16.58
2023-03-10T05:26:42.578Z,9.55
2023-03-10T05:28:44.569Z,10.18
2023-03-10T05:30:46.434Z,10.13
2023-03-10T05:32:48.721Z,8.98
2023-03-10T05:34:50.895Z,11.43
2023-03-10T05:38:54.762Z,13.18
2023-03-10T05:40:56.658Z,14.52
2023-03-10T05:42:58.536Z,13.55
2023-03-10T05:45:00.395Z,11.82
2023-03-10T05:47:02.424Z,13.25
2023-03-10T05:51:11.850Z,22.17
2023-03-10T05:53:13.711Z,18.17
2023-03-10T05:55:17.965Z,23.58
2023-03-10T05:57:20.083Z,30.00
2023-03-10T06:01:23.932Z,13.65
2023-03-10T06:03:25.970Z,15.25
2023-03-10T06:07:29.692Z,21.13
2023-03-10T06:09:32.947Z,34.78
2023-03-10T06:11:35.048Z,20.27
2023-03-10T06:15:38.783Z,47.55
2023-03-10T06:17:41.416Z,53.45
2023-03-10T06:19:43.239Z,25.83
2023-03-10T06:21:45.231Z,17.10
2023-03-10T06:26:00.131Z,8.77
2023-03-10T06:28:02.050Z,11.05
2023-03-10T06:30:04.188Z,8.57
2023-03-10T06:34:08.088Z,8.27
2023-03-10T06:36:12.902Z,7.20
2023-03-10T06:38:14.830Z,6.68
2023-03-10T06:40:16.697Z,7.97
2023-03-10T06:42:18.571Z,6.40
2023-03-10T06:44:20.461Z,4.82
2023-03-10T06:46:22.469Z,6.53
2023-03-10T06:50:26.069Z,10.43
2023-03-10T06:52:27.973Z,8.25
2023-03-10T06:54:29.825Z,9.00
2023-03-10T06:56:31.794Z,8.30
2023-03-10T06:58:35.341Z,8.50
2023-03-10T07:00:39.752Z,12.82
2023-03-10T07:02:42.599Z,16.85
2023-03-10T07:04:44.619Z,10.82
2023-03-10T07:08:48.386Z,9.70
2023-03-10T07:10:51.774Z,11.45
2023-03-10T07:12:56.693Z,9.02
2023-03-10T07:14:59.116Z,11.20
2023-03-10T07:17:01.067Z,9.85
2023-03-10T07:19:02.979Z,13.18
2023-03-10T07:21:12.587Z,10.93
2023-03-10T07:23:14.973Z,13.80
2023-03-10T07:25:16.894Z,17.20
2023-03-10T07:27:18.755Z,12.93
2023-03-10T07:29:21.770Z,13.13
2023-03-10T07:31:24.773Z,10.68
2023-03-10T07:33:26.906Z,6.50
2023-03-10T07:37:30.617Z,8.18
2023-03-10T07:39:32.440Z,4.88
2023-03-10T07:41:34.361Z,5.65
2023-03-10T07:43:36.857Z,4.55
2023-03-10T07:45:39.113Z,8.55
2023-03-10T07:47:41.033Z,17.15
2023-03-10T07:49:46.814Z,10.90
2023-03-10T07:51:48.814Z,9.70
2023-03-10T07:53:50.670Z,5.15
2023-03-10T07:55:52.836Z,5.70
2023-03-10T07:59:58.815Z,7.93
2023-03-10T08:02:00.877Z,7.65
2023-03-10T08:06:05.840Z,8.75
2023-03-10T08:08:08.173Z,7.93
2023-03-10T08:10:11.188Z,8.15
2023-03-10T08:12:13.031Z,7.28
2023-03-10T08:14:16.058Z,7.22
2023-03-10T08:16:20.245Z,6.53
2023-03-10T08:18:23.444Z,7.65
2023-03-10T08:20:26.163Z,10.60
2023-03-10T08:22:28.638Z,7.13
2023-03-10T08:24:30.788Z,12.45
2023-03-10T08:28:35.436Z,7.90
2023-03-10T08:30:52.469Z,9.45
2023-03-10T08:33:01.246Z,8.52
2023-03-10T08:37:06.180Z,13.68
2023-03-10T08:39:08.636Z,9.48
2023-03-10T08:41:20.871Z,11.25
2023-03-10T08:43:22.756Z,13.13
2023-03-10T08:45:24.682Z,12.25
2023-03-10T08:49:32.766Z,11.00
2023-03-10T08:51:34.841Z,10.07
2023-03-10T08:55:39.500Z,14.55
2023-03-10T08:57:41.588Z,15.10
2023-03-10T09:01:45.480Z,11.13
2023-03-10T09:05:49.477Z,12.70
2023-03-10T09:09:53.098Z,16.20
2023-03-10T09:11:54.962Z,11.32
2023-03-10T09:13:57.011Z,14.75
2023-03-10T09:18:01.871Z,13.80
2023-03-10T09:20:06.548Z,14.10
2023-03-10T09:22:08.499Z,12.50
2023-03-10T09:24:10.427Z,10.93
2023-03-10T09:26:12.952Z,14.10
2023-03-10T09:28:17.413Z,10.00
2023-03-10T09:30:20.652Z,13.05
2023-03-10T09:34:27.599Z,12.07
2023-03-10T09:36:29.924Z,13.13
2023-03-10T09:38:31.883Z,11.38
2023-03-10T09:40:35.507Z,11.30
2023-03-10T09:42:44.524Z,11.07
2023-03-10T09:45:05.052Z,15.55
2023-03-10T09:47:09.960Z,12.15
2023-03-10T09:49:26.646Z,13.70
2023-03-10T09:51:29.253Z,11.38
2023-03-10T09:53:52.699Z,12.60
2023-03-10T09:55:54.735Z,12.98
2023-03-10T09:57:57.991Z,14.35
2023-03-10T10:00:05.625Z,10.90
2023-03-10T10:02:26.595Z,9.63
2023-03-10T10:04:35.468Z,10.38
2023-03-10T10:06:39.370Z,9.00
2023-03-10T10:08:54.902Z,10.10
2023-03-10T10:11:04.800Z,12.80
2023-03-10T10:13:16.720Z,9.25
2023-03-10T10:15:22.636Z,8.13
2023-03-10T10:17:55.110Z,8.02
2023-03-10T10:20:07.068Z,13.73
2023-03-10T10:22:23.077Z,8.77
2023-03-10T10:24:25.191Z,7.78
2023-03-10T10:28:42.147Z,9.50
2023-03-10T10:30:44.250Z,8.98
2023-03-10T10:35:14.882Z,9.00
2023-03-10T10:37:39.532Z,7.15
2023-03-10T10:39:43.630Z,7.35
2023-03-10T10:41:45.527Z,8.98
2023-03-10T10:43:48.603Z,8.80
2023-03-10T10:45:57.342Z,6.53
2023-03-10T10:47:59.385Z,7.88
2023-03-10T10:52:26.644Z,6.10
2023-03-10T10:54:34.766Z,8.65
2023-03-10T10:56:36.630Z,6.88
2023-03-10T10:58:41.307Z,6.30
2023-03-10T11:00:43.256Z,7.22
2023-03-10T11:02:45.949Z,8.43
2023-03-10T11:04:47.946Z,6.85
2023-03-10T11:06:51.102Z,9.52
2023-03-10T11:09:08.249Z,6.80
2023-03-10T11:11:18.794Z,8.05
2023-03-10T11:13:35.722Z,7.75
2023-03-10T11:15:51.457Z,12.07
2023-03-10T11:18:19.859Z,6.03
2023-03-10T11:20:49.168Z,7.47
2023-03-10T11:23:14.317Z,7.28
2023-03-10T11:25:40.549Z,7.72
2023-03-10T11:27:45.199Z,7.95
2023-03-10T11:30:17.749Z,9.25
2023-03-10T11:32:36.934Z,8.98
2023-03-10T11:34:45.504Z,6.55
2023-03-10T11:37:05.379Z,9.70
2023-03-10T11:39:23.096Z,9.25
2023-03-10T11:41:28.766Z,6.68
2023-03-10T11:43:37.960Z,9.80
2023-03-10T11:45:53.658Z,6.28
2023-03-10T11:48:17.649Z,7.95
2023-03-10T11:50:32.562Z,6.72
2023-03-10T11:52:35.218Z,7.65
2023-03-10T11:54:45.343Z,10.02
2023-03-10T11:56:48.559Z,8.48
2023-03-10T11:59:08.835Z,12.07
2023-03-10T12:01:16.116Z,9.90
2023-03-10T12:03:57.046Z,12.18
2023-03-10T12:06:00.672Z,13.25
2023-03-10T12:08:05.958Z,11.40
2023-03-10T12:10:13.561Z,12.90
2023-03-10T12:12:20.535Z,14.85
2023-03-10T12:14:24.359Z,13.40
2023-03-10T12:16:33.936Z,19.45
2023-03-10T12:18:35.873Z,25.65
2023-03-10T12:20:37.731Z,29.98
2023-03-10T12:22:43.617Z,33.70
2023-03-10T12:24:46.856Z,20.20
2023-03-10T12:26:50.074Z,16.52
2023-03-10T12:29:20.794Z,20.10
2023-03-10T12:31:37.820Z,20.85
2023-03-10T12:33:44.243Z,19.38
2023-03-10T12:35:49.525Z,12.98
2023-03-10T12:38:30.244Z,15.68
2023-03-10T12:40:52.082Z,17.20
2023-03-10T12:42:53.997Z,11.77
2023-03-10T12:45:21.939Z,16.05
2023-03-10T12:47:33.063Z,17.50
2023-03-10T12:49:46.125Z,14.55
2023-03-10T12:52:02.322Z,20.13
2023-03-10T12:54:18.165Z,21.33
2023-03-10T12:56:31.925Z,27.95
2023-03-10T12:58:37.165Z,25.63
2023-03-10T13:00:47.698Z,32.97
2023-03-10T13:02:49.514Z,33.50
2023-03-10T13:04:55.927Z,44.10
2023-03-10T13:07:03.666Z,41.10
2023-03-10T13:09:27.402Z,39.00
2023-03-10T13:11:57.678Z,28.25
2023-03-10T13:14:10.242Z,31.65
2023-03-10T13:16:21.545Z,22.50
2023-03-10T13:18:23.768Z,21.80
2023-03-10T13:20:25.648Z,22.15
2023-03-10T13:22:28.163Z,17.35
2023-03-10T13:24:33.545Z,19.70
2023-03-10T13:26:35.457Z,22.52
2023-03-10T13:28:38.106Z,25.08
2023-03-10T13:30:40.181Z,24.95
2023-03-10T13:34:44.412Z,11.85
2023-03-10T13:36:46.766Z,15.88
2023-03-10T13:38:49.997Z,17.52
2023-03-10T13:41:10.893Z,16.52
2023-03-10T13:43:33.851Z,18.05
2023-03-10T13:45:35.798Z,16.83
2023-03-10T13:47:41.670Z,21.50
2023-03-10T13:49:50.146Z,19.88
2023-03-10T13:52:04.324Z,23.30
2023-03-10T13:54:35.813Z,14.18
2023-03-10T13:56:41.384Z,12.23
2023-03-10T13:58:44.950Z,10.70
2023-03-10T14:00:50.651Z,12.40
2023-03-10T14:02:53.858Z,12.80
2023-03-10T14:04:57.660Z,18.33
2023-03-10T14:07:11.465Z,15.35
2023-03-10T14:09:22.160Z,22.48
2023-03-10T14:11:33.499Z,27.83
2023-03-10T14:13:45.675Z,27.52
2023-03-10T14:15:55.392Z,31.65
2023-03-10T14:18:09.209Z,30.88
2023-03-10T14:20:31.756Z,36.38
2023-03-10T14:24:40.034Z,29.63
2023-03-10T14:26:43.354Z,27.67
2023-03-10T14:28:45.232Z,35.20
2023-03-10T14:30:47.163Z,38.05
2023-03-10T14:32:49.573Z,30.20
2023-03-10T14:34:51.450Z,34.08
2023-03-10T14:36:53.283Z,31.70
2023-03-10T14:38:55.153Z,31.17
2023-03-10T14:40:57.114Z,31.08
2023-03-10T14:43:01.741Z,32.20
2023-03-10T14:45:18.679Z,35.10
2023-03-10T14:47:20.817Z,30.27
2023-03-10T14:49:25.452Z,28.90
2023-03-10T14:51:35.437Z,31.83
2023-03-10T14:53:38.358Z,30.98
2023-03-10T14:55:41.949Z,26.92
2023-03-10T14:57:46.188Z,30.45
2023-03-10T14:59:48.402Z,30.98
2023-03-10T15:01:50.452Z,29.25
2023-03-10T15:05:54.621Z,28.75
2023-03-10T15:07:56.570Z,30.73
2023-03-10T15:10:10.521Z,24.75
2023-03-10T15:12:17.805Z,24.55
2023-03-10T15:14:19.890Z,27.77
2023-03-10T15:18:24.503Z,36.15
2023-03-10T15:20:26.401Z,21.10
2023-03-10T15:22:28.278Z,27.90
2023-03-10T15:24:30.171Z,23.90
2023-03-10T15:26:31.999Z,26.80
2023-03-10T15:28:35.262Z,26.13
2023-03-10T15:30:38.169Z,26.73
2023-03-10T15:32:40.067Z,19.15
2023-03-10T15:34:41.963Z,21.05
2023-03-10T15:36:43.933Z,21.92
2023-03-10T15:38:45.878Z,20.55
2023-03-10T15:40:48.098Z,17.25
2023-03-10T15:42:50.128Z,16.83
2023-03-10T15:44:52.205Z,32.33
2023-03-10T15:48:57.542Z,20.52
2023-03-10T15:50:59.631Z,20.20
2023-03-10T15:55:03.522Z,23.90
2023-03-10T15:59:08.279Z,31.98
2023-03-10T16:01:12.298Z,21.20
2023-03-10T16:03:17.691Z,28.55
2023-03-10T16:05:20.670Z,23.52
2023-03-10T16:07:22.516Z,25.17
2023-03-10T16:09:24.388Z,35.30
2023-03-10T16:11:26.611Z,32.42
2023-03-10T16:13:28.455Z,35.47
2023-03-10T16:15:30.311Z,40.95
2023-03-10T16:17:32.645Z,34.85
2023-03-10T16:19:34.536Z,36.47
2023-03-10T16:21:36.676Z,31.38
2023-03-10T16:25:40.888Z,37.28
2023-03-10T16:27:44.430Z,38.60
2023-03-10T16:29:46.378Z,40.60
2023-03-10T16:31:48.347Z,37.50
2023-03-10T16:33:51.526Z,46.70
2023-03-10T16:35:53.685Z,44.03
2023-03-10T16:39:58.064Z,43.33
2023-03-10T16:42:00.200Z,51.65
2023-03-10T16:46:17.330Z,47.97
2023-03-10T16:48:20.360Z,63.22
2023-03-10T16:50:22.440Z,66.78
2023-03-10T16:54:26.049Z,77.57
2023-03-10T16:56:29.343Z,82.90
2023-03-10T16:58:34.035Z,83.90
2023-03-10T17:00:41.289Z,91.95
2023-03-10T17:02:43.287Z,88.43
2023-03-10T17:04:47.150Z,76.22
2023-03-10T17:06:49.172Z,76.20
2023-03-10T17:12:57.142Z,57.80
2023-03-10T17:14:59.328Z,54.92
2023-03-10T17:17:02.447Z,39.95
2023-03-10T17:19:09.372Z,37.72
2023-03-10T17:21:24.484Z,37.13
2023-03-10T17:23:27.039Z,39.25
2023-03-10T17:25:30.244Z,36.60
2023-03-10T17:27:33.114Z,35.15
2023-03-10T17:29:35.367Z,35.13
2023-03-10T17:31:38.123Z,40.15
2023-03-10T17:33:41.832Z,35.80
2023-03-10T17:35:44.650Z,31.38
2023-03-10T17:37:47.063Z,42.53
2023-03-10T17:39:49.489Z,30.63
2023-03-10T17:41:52.213Z,29.38
2023-03-10T17:43:55.149Z,27.42
2023-03-10T17:46:02.673Z,23.65
2023-03-10T17:48:04.869Z,27.52
2023-03-10T17:52:08.937Z,28.17
2023-03-10T17:54:16.529Z,33.58
2023-03-10T17:56:19.213Z,26.90
2023-03-10T17:58:21.361Z,29.05
2023-03-10T18:00:23.920Z,31.25
2023-03-10T18:02:26.047Z,24.60
2023-03-10T18:06:33.841Z,20.92
2023-03-10T18:08:35.732Z,21.20
2023-03-10T18:10:38.547Z,23.35
2023-03-10T18:12:40.405Z,19.02
2023-03-10T18:14:42.482Z,23.15
2023-03-10T18:18:46.545Z,25.67
2023-03-10T18:22:51.286Z,32.38
2023-03-10T18:24:54.100Z,23.88
2023-03-10T18:26:57.335Z,34.78
2023-03-10T18:29:00.364Z,27.15
2023-03-10T18:31:03.152Z,27.15
2023-03-10T18:33:05.298Z,25.55
2023-03-10T18:35:10.384Z,24.08
2023-03-10T18:37:12.636Z,25.48
2023-03-10T18:39:14.646Z,27.50
2023-03-10T18:43:21.918Z,19.20
2023-03-10T18:45:23.900Z,19.20
2023-03-10T18:49:27.685Z,15.63
2023-03-10T18:51:29.652Z,19.10
2023-03-10T18:53:31.725Z,18.17
2023-03-10T18:57:35.436Z,15.52
2023-03-10T18:59:37.330Z,17.98
2023-03-10T19:01:39.216Z,17.83
2023-03-10T19:05:44.250Z,14.23
2023-03-10T19:07:46.737Z,15.43
2023-03-10T19:09:54.113Z,15.70
2023-03-10T19:11:56.251Z,19.42
2023-03-10T19:13:58.131Z,20.50
2023-03-10T19:16:00.111Z,17.98
2023-03-10T19:20:11.349Z,20.02
2023-03-10T19:22:13.505Z,16.52
2023-03-10T19:24:15.413Z,18.25
2023-03-10T19:26:17.354Z,20.55
2023-03-10T19:28:19.327Z,19.50
2023-03-10T19:30:21.595Z,17.58
2023-03-10T19:32:23.583Z,18.92
2023-03-10T19:36:29.528Z,25.83
2023-03-10T19:38:31.714Z,22.23
2023-03-10T19:40:34.106Z,21.85
2023-03-10T19:42:38.469Z,57.28
2023-03-10T19:44:40.489Z,44.10
2023-03-10T19:48:44.660Z,32.67
2023-03-10T19:50:52.497Z,26.38
2023-03-10T19:52:54.428Z,23.27
2023-03-10T19:54:56.829Z,23.45
2023-03-10T19:56:58.661Z,24.88
2023-03-10T19:59:01.439Z,23.50
2023-03-10T20:01:04.695Z,30.92
2023-03-10T20:03:06.717Z,28.05
2023-03-10T20:07:12.471Z,28.73
2023-03-10T20:09:14.361Z,25.67
2023-03-10T20:11:17.187Z,26.00
2023-03-10T20:13:20.542Z,30.92
2023-03-10T20:17:24.287Z,28.42
2023-03-10T20:19:26.384Z,34.70
2023-03-10T20:23:30.199Z,36.00
2023-03-10T20:27:34.466Z,38.25
2023-03-10T20:29:36.419Z,34.08
2023-03-10T20:31:38.475Z,33.85
2023-03-10T20:33:40.355Z,32.38
2023-03-10T20:35:42.278Z,41.60
2023-03-10T20:39:46.329Z,42.10
2023-03-10T20:41:48.793Z,42.67
2023-03-10T20:43:51.231Z,37.72
2023-03-10T20:45:53.602Z,34.08
2023-03-10T20:47:55.629Z,38.95
2023-03-10T20:51:59.463Z,48.75
2023-03-10T20:54:01.399Z,43.72
2023-03-10T20:56:07.716Z,49.00
2023-03-10T20:58:09.568Z,48.28
2023-03-10T21:00:12.511Z,47.85
2023-03-10T21:02:15.896Z,48.90
2023-03-10T21:04:20.001Z,49.05
2023-03-10T21:06:23.600Z,52.60
2023-03-10T21:08:25.582Z,50.63
2023-03-10T21:12:30.268Z,48.55
2023-03-10T21:14:32.226Z,53.47
2023-03-10T21:16:38.216Z,47.25
2023-03-10T21:18:40.319Z,51.20
2023-03-10T21:22:44.257Z,50.00
2023-03-10T21:24:46.232Z,54.28
2023-03-10T21:26:48.096Z,51.72
2023-03-10T21:28:50.009Z,50.60
2023-03-10T21:30:52.017Z,52.22
2023-03-10T21:34:55.855Z,50.00
2023-03-10T21:36:58.693Z,51.17
2023-03-10T21:39:00.627Z,49.85
2023-03-10T21:41:05.247Z,51.40
2023-03-10T21:43:07.141Z,52.55
2023-03-10T21:45:11.719Z,52.35
2023-03-10T21:47:13.615Z,49.33
2023-03-10T21:49:15.846Z,54.03
2023-03-10T21:51:23.045Z,53.67
2023-03-10T21:53:26.702Z,54.28
2023-03-10T21:55:29.569Z,61.17
2023-03-10T21:57:31.498Z,58.13
2023-03-10T21:59:33.357Z,54.97
2023-03-10T22:01:35.294Z,52.97
2023-03-10T22:03:38.363Z,58.72
2023-03-10T22:05:40.196Z,58.65
2023-03-10T22:07:42.706Z,49.92
2023-03-10T22:09:45.742Z,50.28
2023-03-10T22:11:48.287Z,49.97
2023-03-10T22:13:50.243Z,48.70
2023-03-10T22:17:56.430Z,56.28
2023-03-10T22:19:58.583Z,51.17
2023-03-10T22:24:03.485Z,54.83
2023-03-10T22:26:06.516Z,58.25
2023-03-10T22:28:09.140Z,58.38
2023-03-10T22:30:14.187Z,58.42
2023-03-10T22:32:16.449Z,54.05
2023-03-10T22:34:18.374Z,60.70
2023-03-10T22:36:20.509Z,64.18
2023-03-10T22:38:22.801Z,65.43
2023-03-10T22:40:25.685Z,65.43
2023-03-10T22:42:27.610Z,67.55
2023-03-10T22:44:34.896Z,70.05
2023-03-10T22:46:36.920Z,69.28
2023-03-10T22:50:44.396Z,65.53
2023-03-10T22:52:46.434Z,65.30
2023-03-10T22:56:50.104Z,69.90
2023-03-10T22:58:52.046Z,65.43
2023-03-10T23:02:56.104Z,66.13
2023-03-10T23:06:59.753Z,64.32
2023-03-10T23:09:05.206Z,68.20
2023-03-10T23:11:11.530Z,68.18
2023-03-10T23:13:15.742Z,71.20
2023-03-10T23:15:25.795Z,61.72
2023-03-10T23:17:28.070Z,63.65
2023-03-10T23:21:31.848Z,65.88
2023-03-10T23:25:39.030Z,59.05
2023-03-10T23:27:41.318Z,64.40
2023-03-10T23:29:43.286Z,55.95
2023-03-10T23:31:45.244Z,56.40
2023-03-10T23:35:53.898Z,55.28
2023-03-10T23:37:56.718Z,57.63
2023-03-10T23:39:58.604Z,59.10
2023-03-10T23:42:00.686Z,57.95
2023-03-10T23:46:06.741Z,48.10
2023-03-10T23:48:12.412Z,60.13
2023-03-10T23:50:21.425Z,54.33
2023-03-10T23:52:23.306Z,48.83
2023-03-10T23:54:25.171Z,51.58
2023-03-10T23:56:27.028Z,57.72
2023-03-10T23:58:29.115Z,48.92
